createdAt,value
2023-03-15T00:00:25.953Z,997.45
2023-03-15T00:01:26.038Z,997.46
2023-03-15T00:02:26.165Z,997.42
2023-03-15T00:03:26.162Z,997.43
2023-03-15T00:04:26.268Z,997.41
2023-03-15T00:05:26.311Z,997.43
2023-03-15T00:06:26.413Z,997.44
2023-03-15T00:07:26.472Z,997.48
2023-03-15T00:08:26.542Z,997.49
2023-03-15T00:09:26.656Z,997.48
2023-03-15T00:10:26.740Z,997.52
2023-03-15T00:11:26.822Z,997.55
2023-03-15T00:12:26.924Z,997.55
2023-03-15T00:13:27.032Z,997.54
2023-03-15T00:14:27.116Z,997.55
2023-03-15T00:15:27.319Z,997.52
2023-03-15T00:16:27.238Z,997.54
2023-03-15T00:17:27.286Z,997.52
2023-03-15T00:18:27.387Z,997.55
2023-03-15T00:19:27.480Z,997.58
2023-03-15T00:20:27.491Z,997.55
2023-03-15T00:21:27.606Z,997.53
2023-03-15T00:22:27.653Z,997.57
2023-03-15T00:23:27.743Z,997.61
2023-03-15T00:24:27.837Z,997.54
2023-03-15T00:25:27.877Z,997.59
2023-03-15T00:26:27.976Z,997.58
2023-03-15T00:27:28.047Z,997.56
2023-03-15T00:28:28.146Z,997.58
2023-03-15T00:29:28.232Z,997.58
2023-03-15T00:30:28.278Z,997.51
2023-03-15T00:31:28.379Z,997.52
2023-03-15T00:32:28.478Z,997.54
2023-03-15T00:33:28.541Z,997.58
2023-03-15T00:34:28.653Z,997.53
2023-03-15T00:35:28.729Z,997.55
2023-03-15T00:36:28.828Z,997.54
2023-03-15T00:37:28.902Z,997.56
2023-03-15T00:38:29.014Z,997.55
2023-03-15T00:39:29.089Z,997.58
2023-03-15T00:40:29.148Z,997.58
2023-03-15T00:41:29.237Z,997.56
2023-03-15T00:42:29.312Z,997.59
2023-03-15T00:43:29.379Z,997.59
2023-03-15T00:44:29.466Z,997.62
2023-03-15T00:45:29.539Z,997.61
2023-03-15T00:46:29.793Z,997.61
2023-03-15T00:47:29.732Z,997.60
2023-03-15T00:48:29.846Z,997.58
2023-03-15T00:49:29.930Z,997.58
2023-03-15T00:50:29.994Z,997.56
2023-03-15T00:51:30.062Z,997.55
2023-03-15T00:52:30.166Z,997.52
2023-03-15T00:53:30.246Z,997.58
2023-03-15T00:54:30.362Z,997.57
2023-03-15T00:55:30.414Z,997.59
2023-03-15T00:56:30.517Z,997.53
2023-03-15T00:57:30.601Z,997.55
2023-03-15T00:58:30.695Z,997.60
2023-03-15T00:59:30.798Z,997.60
2023-03-15T01:00:30.861Z,997.61
2023-03-15T01:01:31.060Z,997.57
2023-03-15T01:02:31.056Z,997.63
2023-03-15T01:03:31.103Z,997.58
2023-03-15T01:04:31.205Z,997.60
2023-03-15T01:05:31.278Z,997.61
2023-03-15T01:06:31.370Z,997.60
2023-03-15T01:07:31.445Z,997.59
2023-03-15T01:08:31.530Z,997.63
2023-03-15T01:09:31.607Z,997.60
2023-03-15T01:10:31.683Z,997.61
2023-03-15T01:11:31.772Z,997.62
2023-03-15T01:12:31.867Z,997.56
2023-03-15T01:13:31.916Z,997.61
2023-03-15T01:14:32.025Z,997.59
2023-03-15T01:15:32.059Z,997.61
2023-03-15T01:16:32.224Z,997.63
2023-03-15T01:17:32.246Z,997.65
2023-03-15T01:18:32.357Z,997.67
2023-03-15T01:19:32.434Z,997.65
2023-03-15T01:20:32.515Z,997.68
2023-03-15T01:21:32.571Z,997.63
2023-03-15T01:22:32.641Z,997.64
2023-03-15T01:23:32.713Z,997.63
2023-03-15T01:24:32.825Z,997.66
2023-03-15T01:25:32.863Z,997.67
2023-03-15T01:26:32.971Z,997.64
2023-03-15T01:27:33.044Z,997.69
2023-03-15T01:28:33.137Z,997.72
2023-03-15T01:29:33.219Z,997.72
2023-03-15T01:30:33.292Z,997.76
2023-03-15T01:31:33.437Z,997.74
2023-03-15T01:32:33.466Z,997.78
2023-03-15T01:33:33.525Z,997.77
2023-03-15T01:34:33.629Z,997.85
2023-03-15T01:35:33.699Z,997.87
2023-03-15T01:36:33.806Z,997.88
2023-03-15T01:37:33.850Z,997.90
2023-03-15T01:38:33.923Z,997.88
2023-03-15T01:39:34.039Z,997.85
2023-03-15T01:40:34.071Z,997.85
2023-03-15T01:41:34.134Z,997.80
2023-03-15T01:42:34.237Z,997.81
2023-03-15T01:43:34.292Z,997.82
2023-03-15T01:44:34.410Z,997.89
2023-03-15T01:45:34.474Z,997.88
2023-03-15T01:46:35.060Z,997.90
2023-03-15T01:47:34.631Z,997.90
2023-03-15T01:48:34.713Z,997.91
2023-03-15T01:49:34.792Z,997.95
2023-03-15T01:50:34.847Z,997.93
2023-03-15T01:51:34.981Z,997.93
2023-03-15T01:52:35.080Z,997.95
2023-03-15T01:53:35.122Z,997.95
2023-03-15T01:54:35.223Z,997.96
2023-03-15T01:55:35.268Z,997.97
2023-03-15T01:56:35.348Z,997.97
2023-03-15T01:57:35.430Z,998.01
2023-03-15T01:58:36.862Z,997.99
2023-03-15T01:59:35.639Z,997.96
2023-03-15T02:00:35.763Z,997.99
2023-03-15T02:01:35.774Z,997.96
2023-03-15T02:02:35.847Z,997.95
2023-03-15T02:03:35.923Z,997.92
2023-03-15T02:04:36.053Z,997.95
2023-03-15T02:05:36.073Z,997.90
2023-03-15T02:06:36.147Z,997.92
2023-03-15T02:07:36.233Z,997.94
2023-03-15T02:08:36.336Z,997.89
2023-03-15T02:09:36.444Z,997.88
2023-03-15T02:10:36.522Z,997.90
2023-03-15T02:11:36.581Z,997.90
2023-03-15T02:12:36.655Z,997.92
2023-03-15T02:13:36.738Z,997.92
2023-03-15T02:14:36.829Z,997.93
2023-03-15T02:15:36.867Z,997.96
2023-03-15T02:16:36.948Z,997.97
2023-03-15T02:17:37.017Z,997.91
2023-03-15T02:18:37.097Z,997.91
2023-03-15T02:19:37.211Z,997.91
2023-03-15T02:20:37.279Z,997.93
2023-03-15T02:21:37.353Z,997.94
2023-03-15T02:22:37.454Z,997.95
2023-03-15T02:23:37.535Z,997.97
2023-03-15T02:24:37.646Z,997.94
2023-03-15T02:25:37.713Z,997.97
2023-03-15T02:26:37.797Z,997.96
2023-03-15T02:27:37.945Z,997.93
2023-03-15T02:28:37.963Z,997.91
2023-03-15T02:29:38.052Z,997.93
2023-03-15T02:30:38.142Z,997.89
2023-03-15T02:31:38.380Z,997.89
2023-03-15T02:32:38.283Z,997.81
2023-03-15T02:33:38.334Z,997.80
2023-03-15T02:34:38.457Z,997.81
2023-03-15T02:35:38.554Z,997.83
2023-03-15T02:36:38.609Z,997.85
2023-03-15T02:37:38.683Z,997.84
2023-03-15T02:38:38.771Z,997.92
2023-03-15T02:39:38.841Z,998.00
2023-03-15T02:40:38.920Z,998.04
2023-03-15T02:41:38.997Z,998.14
2023-03-15T02:42:39.087Z,998.18
2023-03-15T02:43:39.162Z,998.28
2023-03-15T02:44:39.304Z,998.32
2023-03-15T02:45:39.337Z,998.33
2023-03-15T02:46:39.431Z,998.34
2023-03-15T02:47:39.526Z,998.32
2023-03-15T02:48:39.594Z,998.34
2023-03-15T02:49:39.699Z,998.31
2023-03-15T02:50:39.790Z,998.32
2023-03-15T02:51:39.868Z,998.33
2023-03-15T02:52:39.959Z,998.30
2023-03-15T02:53:40.054Z,998.22
2023-03-15T02:54:40.153Z,998.26
2023-03-15T02:55:40.205Z,998.21
2023-03-15T02:56:40.331Z,998.26
2023-03-15T02:57:40.362Z,998.25
2023-03-15T02:58:40.462Z,998.22
2023-03-15T02:59:40.539Z,998.22
2023-03-15T03:00:40.631Z,998.18
2023-03-15T03:01:40.709Z,998.15
2023-03-15T03:02:40.838Z,998.20
2023-03-15T03:03:40.884Z,998.20
2023-03-15T03:04:41.022Z,998.19
2023-03-15T03:05:41.063Z,998.20
2023-03-15T03:06:41.167Z,998.20
2023-03-15T03:07:41.235Z,998.18
2023-03-15T03:08:41.340Z,998.21
2023-03-15T03:09:41.451Z,998.27
2023-03-15T03:10:41.519Z,998.27
2023-03-15T03:11:41.614Z,998.29
2023-03-15T03:12:41.676Z,998.33
2023-03-15T03:13:41.760Z,998.30
2023-03-15T03:14:41.842Z,998.34
2023-03-15T03:15:43.976Z,998.32
2023-03-15T03:16:42.051Z,998.35
2023-03-15T03:17:42.068Z,998.36
2023-03-15T03:18:42.208Z,998.38
2023-03-15T03:19:42.286Z,998.41
2023-03-15T03:20:42.359Z,998.40
2023-03-15T03:21:42.421Z,998.46
2023-03-15T03:22:42.509Z,998.42
2023-03-15T03:23:42.579Z,998.46
2023-03-15T03:24:42.673Z,998.49
2023-03-15T03:25:42.743Z,998.44
2023-03-15T03:26:42.815Z,998.40
2023-03-15T03:27:42.890Z,998.42
2023-03-15T03:28:42.983Z,998.45
2023-03-15T03:29:43.071Z,998.41
2023-03-15T03:30:43.190Z,998.43
2023-03-15T03:31:43.201Z,998.40
2023-03-15T03:32:43.317Z,998.47
2023-03-15T03:33:43.365Z,998.51
2023-03-15T03:34:43.473Z,998.51
2023-03-15T03:35:43.550Z,998.46
2023-03-15T03:36:43.597Z,998.44
2023-03-15T03:37:43.661Z,998.46
2023-03-15T03:38:43.763Z,998.48
2023-03-15T03:39:43.851Z,998.52
2023-03-15T03:40:43.908Z,998.53
2023-03-15T03:41:43.976Z,998.52
2023-03-15T03:42:44.051Z,998.50
2023-03-15T03:43:44.147Z,998.50
2023-03-15T03:44:44.225Z,998.49
2023-03-15T03:45:44.340Z,998.51
2023-03-15T03:46:44.399Z,998.52
2023-03-15T03:47:44.491Z,998.54
2023-03-15T03:48:44.571Z,998.56
2023-03-15T03:49:44.682Z,998.60
2023-03-15T03:50:44.744Z,998.61
2023-03-15T03:51:44.854Z,998.65
2023-03-15T03:52:44.930Z,998.63
2023-03-15T03:53:45.036Z,998.67
2023-03-15T03:54:45.134Z,998.63
2023-03-15T03:55:45.184Z,998.67
2023-03-15T03:56:45.274Z,998.66
2023-03-15T03:57:45.370Z,998.65
2023-03-15T03:58:45.456Z,998.62
2023-03-15T03:59:45.566Z,998.65
2023-03-15T04:00:45.620Z,998.66
2023-03-15T04:01:45.704Z,998.70
2023-03-15T04:02:45.884Z,998.68
2023-03-15T04:03:45.862Z,998.68
2023-03-15T04:04:46.016Z,998.69
2023-03-15T04:05:46.043Z,998.70
2023-03-15T04:06:46.254Z,998.70
2023-03-15T04:07:46.235Z,998.69
2023-03-15T04:08:46.336Z,998.70
2023-03-15T04:09:46.440Z,998.68
2023-03-15T04:10:46.506Z,998.66
2023-03-15T04:11:46.603Z,998.61
2023-03-15T04:12:46.687Z,998.67
2023-03-15T04:13:46.773Z,998.68
2023-03-15T04:14:46.868Z,998.68
2023-03-15T04:15:46.978Z,998.66
2023-03-15T04:16:47.049Z,998.67
2023-03-15T04:17:47.146Z,998.70
2023-03-15T04:18:47.213Z,998.72
2023-03-15T04:19:47.331Z,998.74
2023-03-15T04:20:47.404Z,998.72
2023-03-15T04:21:47.833Z,998.71
2023-03-15T04:22:47.551Z,998.68
2023-03-15T04:23:47.647Z,998.66
2023-03-15T04:24:47.894Z,998.71
2023-03-15T04:25:47.803Z,998.68
2023-03-15T04:26:47.882Z,998.66
2023-03-15T04:27:47.958Z,998.69
2023-03-15T04:28:48.031Z,998.70
2023-03-15T04:29:48.149Z,998.70
2023-03-15T04:30:48.239Z,998.76
2023-03-15T04:31:48.304Z,998.73
2023-03-15T04:32:48.398Z,998.73
2023-03-15T04:33:48.480Z,998.75
2023-03-15T04:34:48.577Z,998.70
2023-03-15T04:35:48.701Z,998.77
2023-03-15T04:36:48.736Z,998.76
2023-03-15T04:37:48.833Z,998.77
2023-03-15T04:38:48.910Z,998.76
2023-03-15T04:39:49.026Z,998.76
2023-03-15T04:40:49.070Z,998.77
2023-03-15T04:41:49.158Z,998.81
2023-03-15T04:42:49.240Z,998.81
2023-03-15T04:43:49.335Z,998.80
2023-03-15T04:44:49.412Z,998.77
2023-03-15T04:45:49.507Z,998.78
2023-03-15T04:46:49.610Z,998.83
2023-03-15T04:47:49.659Z,998.85
2023-03-15T04:48:49.722Z,998.84
2023-03-15T04:49:49.843Z,998.82
2023-03-15T04:50:49.905Z,998.84
2023-03-15T04:51:49.994Z,998.90
2023-03-15T04:52:50.056Z,998.94
2023-03-15T04:53:50.151Z,998.96
2023-03-15T04:54:50.250Z,998.96
2023-03-15T04:55:50.322Z,999.00
2023-03-15T04:56:50.390Z,999.02
2023-03-15T04:57:50.470Z,999.04
2023-03-15T04:58:50.532Z,999.12
2023-03-15T04:59:50.661Z,999.17
2023-03-15T05:00:50.758Z,999.20
2023-03-15T05:01:50.850Z,999.24
2023-03-15T05:02:50.890Z,999.25
2023-03-15T05:03:50.985Z,999.24
2023-03-15T05:04:51.068Z,999.25
2023-03-15T05:05:51.157Z,999.25
2023-03-15T05:06:51.241Z,999.22
2023-03-15T05:07:51.332Z,999.26
2023-03-15T05:08:51.398Z,999.23
2023-03-15T05:09:51.526Z,999.21
2023-03-15T05:10:51.560Z,999.20
2023-03-15T05:11:51.669Z,999.26
2023-03-15T05:12:51.770Z,999.28
2023-03-15T05:13:51.858Z,999.24
2023-03-15T05:14:54.171Z,999.28
2023-03-15T05:15:52.047Z,999.29
2023-03-15T05:16:52.121Z,999.30
2023-03-15T05:17:52.192Z,999.29
2023-03-15T05:18:52.283Z,999.29
2023-03-15T05:19:52.380Z,999.31
2023-03-15T05:20:52.436Z,999.28
2023-03-15T05:21:52.520Z,999.28
2023-03-15T05:22:52.567Z,999.29
2023-03-15T05:23:52.671Z,999.33
2023-03-15T05:24:52.750Z,999.31
2023-03-15T05:25:52.834Z,999.31
2023-03-15T05:26:52.887Z,999.34
2023-03-15T05:27:53.044Z,999.37
2023-03-15T05:28:53.087Z,999.42
2023-03-15T05:29:53.201Z,999.46
2023-03-15T05:30:53.260Z,999.45
2023-03-15T05:31:53.419Z,999.48
2023-03-15T05:32:53.470Z,999.53
2023-03-15T05:33:53.548Z,999.52
2023-03-15T05:34:53.654Z,999.59
2023-03-15T05:35:53.754Z,999.50
2023-03-15T05:36:53.832Z,999.56
2023-03-15T05:37:53.928Z,999.57
2023-03-15T05:38:54.011Z,999.61
2023-03-15T05:39:54.112Z,999.63
2023-03-15T05:40:54.159Z,999.62
2023-03-15T05:41:54.260Z,999.65
2023-03-15T05:42:54.338Z,999.71
2023-03-15T05:43:54.413Z,999.67
2023-03-15T05:44:54.516Z,999.71
2023-03-15T05:45:54.626Z,999.70
2023-03-15T05:46:54.659Z,999.71
2023-03-15T05:47:54.760Z,999.69
2023-03-15T05:48:54.856Z,999.75
2023-03-15T05:49:54.947Z,999.70
2023-03-15T05:50:54.980Z,999.71
2023-03-15T05:51:55.054Z,999.77
2023-03-15T05:52:55.148Z,999.80
2023-03-15T05:53:55.222Z,999.78
2023-03-15T05:54:55.286Z,999.84
2023-03-15T05:55:55.365Z,999.83
2023-03-15T05:56:55.422Z,999.88
2023-03-15T05:57:55.489Z,999.88
2023-03-15T05:58:55.575Z,999.89
2023-03-15T05:59:55.737Z,999.91
2023-03-15T06:00:55.755Z,999.93
2023-03-15T06:01:55.818Z,999.94
2023-03-15T06:02:55.970Z,999.94
2023-03-15T06:03:56.062Z,1000.00
2023-03-15T06:04:56.111Z,999.96
2023-03-15T06:05:56.176Z,999.98
2023-03-15T06:06:56.422Z,1000.03
2023-03-15T06:07:56.367Z,1000.05
2023-03-15T06:08:56.422Z,1000.07
2023-03-15T06:09:56.546Z,1000.06
2023-03-15T06:10:56.623Z,1000.08
2023-03-15T06:11:56.693Z,1000.08
2023-03-15T06:12:56.776Z,1000.10
2023-03-15T06:13:56.889Z,1000.12
2023-03-15T06:14:56.983Z,1000.10
2023-03-15T06:15:57.077Z,1000.08
2023-03-15T06:16:57.247Z,1000.13
2023-03-15T06:17:57.257Z,1000.12
2023-03-15T06:18:57.326Z,1000.12
2023-03-15T06:19:57.450Z,1000.11
2023-03-15T06:20:57.483Z,1000.10
2023-03-15T06:21:57.585Z,1000.13
2023-03-15T06:22:57.673Z,1000.13
2023-03-15T06:23:57.777Z,1000.14
2023-03-15T06:24:57.854Z,1000.18
2023-03-15T06:25:57.910Z,1000.15
2023-03-15T06:26:58.017Z,1000.18
2023-03-15T06:27:58.092Z,1000.23
2023-03-15T06:28:58.149Z,1000.30
2023-03-15T06:29:58.254Z,1000.29
2023-03-15T06:30:58.395Z,1000.34
2023-03-15T06:31:58.429Z,1000.34
2023-03-15T06:32:58.542Z,1000.35
2023-03-15T06:33:58.570Z,1000.35
2023-03-15T06:34:58.649Z,1000.38
2023-03-15T06:35:58.768Z,1000.41
2023-03-15T06:36:58.820Z,1000.40
2023-03-15T06:37:58.918Z,1000.41
2023-03-15T06:38:58.979Z,1000.47
2023-03-15T06:39:59.092Z,1000.43
2023-03-15T06:40:59.134Z,1000.47
2023-03-15T06:41:59.223Z,1000.45
2023-03-15T06:42:59.292Z,1000.48
2023-03-15T06:43:59.482Z,1000.50
2023-03-15T06:44:59.455Z,1000.51
2023-03-15T06:45:59.622Z,1000.54
2023-03-15T06:46:59.616Z,1000.55
2023-03-15T06:47:59.686Z,1000.55
2023-03-15T06:49:01.417Z,1000.58
2023-03-15T06:49:59.865Z,1000.61
2023-03-15T06:50:59.950Z,1000.67
2023-03-15T06:52:00.024Z,1000.62
2023-03-15T06:53:00.149Z,1000.67
2023-03-15T06:54:00.192Z,1000.67
2023-03-15T06:55:00.297Z,1000.67
2023-03-15T06:56:00.358Z,1000.70
2023-03-15T06:57:00.427Z,1000.74
2023-03-15T06:58:00.517Z,1000.71
2023-03-15T06:59:00.578Z,1000.73
2023-03-15T07:00:00.698Z,1000.78
2023-03-15T07:01:00.747Z,1000.78
2023-03-15T07:02:00.853Z,1000.79
2023-03-15T07:03:01.005Z,1000.80
2023-03-15T07:04:01.037Z,1000.81
2023-03-15T07:05:01.113Z,1000.80
2023-03-15T07:06:01.187Z,1000.83
2023-03-15T07:07:01.270Z,1000.84
2023-03-15T07:08:01.351Z,1000.88
2023-03-15T07:09:01.440Z,1000.86
2023-03-15T07:10:01.557Z,1000.90
2023-03-15T07:11:01.586Z,1000.90
2023-03-15T07:12:01.702Z,1000.91
2023-03-15T07:13:01.770Z,1000.95
2023-03-15T07:14:01.850Z,1000.98
2023-03-15T07:15:01.965Z,1001.00
2023-03-15T07:16:02.103Z,1001.04
2023-03-15T07:17:02.076Z,1001.05
2023-03-15T07:18:02.182Z,1001.06
2023-03-15T07:19:02.253Z,1001.08
2023-03-15T07:20:02.358Z,1001.09
2023-03-15T07:21:02.416Z,1001.19
2023-03-15T07:22:02.509Z,1001.20
2023-03-15T07:23:02.564Z,1001.18
2023-03-15T07:24:02.646Z,1001.21
2023-03-15T07:25:02.744Z,1001.23
2023-03-15T07:26:02.802Z,1001.23
2023-03-15T07:27:02.901Z,1001.25
2023-03-15T07:28:02.974Z,1001.24
2023-03-15T07:29:03.089Z,1001.27
2023-03-15T07:30:03.167Z,1001.32
2023-03-15T07:31:03.202Z,1001.34
2023-03-15T07:32:03.310Z,1001.37
2023-03-15T07:33:03.458Z,1001.41
2023-03-15T07:34:03.467Z,1001.40
2023-03-15T07:35:03.572Z,1001.45
2023-03-15T07:36:03.743Z,1001.46
2023-03-15T07:37:03.694Z,1001.46
2023-03-15T07:38:03.767Z,1001.48
2023-03-15T07:39:03.865Z,1001.49
2023-03-15T07:40:03.948Z,1001.51
2023-03-15T07:41:03.995Z,1001.50
2023-03-15T07:42:04.080Z,1001.53
2023-03-15T07:43:04.175Z,1001.54
2023-03-15T07:44:04.282Z,1001.56
2023-03-15T07:45:04.359Z,1001.60
2023-03-15T07:46:04.433Z,1001.57
2023-03-15T07:47:04.508Z,1001.56
2023-03-15T07:48:04.584Z,1001.61
2023-03-15T07:49:04.666Z,1001.58
2023-03-15T07:50:04.787Z,1001.61
2023-03-15T07:51:04.839Z,1001.58
2023-03-15T07:52:04.928Z,1001.67
2023-03-15T07:53:05.075Z,1001.69
2023-03-15T07:54:05.080Z,1001.67
2023-03-15T07:55:05.326Z,1001.72
2023-03-15T07:56:05.264Z,1001.72
2023-03-15T07:57:05.335Z,1001.70
2023-03-15T07:58:05.412Z,1001.71
2023-03-15T07:59:05.503Z,1001.70
2023-03-15T08:00:05.597Z,1001.74
2023-03-15T08:01:05.669Z,1001.75
2023-03-15T08:02:05.826Z,1001.79
2023-03-15T08:03:05.876Z,1001.82
2023-03-15T08:04:05.899Z,1001.79
2023-03-15T08:05:06.010Z,1001.83
2023-03-15T08:06:06.048Z,1001.81
2023-03-15T08:07:06.148Z,1001.79
2023-03-15T08:08:06.217Z,1001.84
2023-03-15T08:09:06.304Z,1001.84
2023-03-15T08:10:06.398Z,1001.88
2023-03-15T08:11:06.433Z,1001.85
2023-03-15T08:12:06.485Z,1001.95
2023-03-15T08:13:06.571Z,1001.96
2023-03-15T08:14:06.651Z,1001.93
2023-03-15T08:15:06.752Z,1001.90
2023-03-15T08:16:06.873Z,1001.95
2023-03-15T08:17:06.879Z,1001.94
2023-03-15T08:18:06.960Z,1001.95
2023-03-15T08:19:07.033Z,1001.93
2023-03-15T08:20:07.145Z,1001.99
2023-03-15T08:21:07.232Z,1002.06
2023-03-15T08:22:07.325Z,1002.04
2023-03-15T08:23:07.406Z,1002.04
2023-03-15T08:24:07.488Z,1002.00
2023-03-15T08:25:07.611Z,1002.06
2023-03-15T08:26:07.679Z,1002.06
2023-03-15T08:27:07.775Z,1002.04
2023-03-15T08:28:07.834Z,1002.13
2023-03-15T08:29:07.938Z,1002.12
2023-03-15T08:30:08.016Z,1002.14
2023-03-15T08:31:08.088Z,1002.15
2023-03-15T08:32:08.334Z,1002.13
2023-03-15T08:33:08.396Z,1002.17
2023-03-15T08:34:08.344Z,1002.23
2023-03-15T08:35:08.450Z,1002.26
2023-03-15T08:36:08.552Z,1002.26
2023-03-15T08:37:08.598Z,1002.31
2023-03-15T08:38:08.676Z,1002.26
2023-03-15T08:39:08.734Z,1002.32
2023-03-15T08:40:08.835Z,1002.28
2023-03-15T08:41:08.897Z,1002.34
2023-03-15T08:42:08.970Z,1002.30
2023-03-15T08:43:09.104Z,1002.38
2023-03-15T08:44:09.132Z,1002.37
2023-03-15T08:45:09.239Z,1002.39
2023-03-15T08:46:09.339Z,1002.40
2023-03-15T08:47:09.370Z,1002.38
2023-03-15T08:48:09.440Z,1002.44
2023-03-15T08:49:09.523Z,1002.42
2023-03-15T08:50:09.631Z,1002.53
2023-03-15T08:51:09.690Z,1002.56
2023-03-15T08:52:09.767Z,1002.46
2023-03-15T08:53:09.820Z,1002.51
2023-03-15T08:54:09.901Z,1002.43
2023-03-15T08:55:10.168Z,1002.44
2023-03-15T08:56:10.118Z,1002.56
2023-03-15T08:57:10.113Z,1002.52
2023-03-15T08:58:10.185Z,1002.51
2023-03-15T08:59:11.414Z,1002.53
2023-03-15T09:00:10.491Z,1002.52
2023-03-15T09:01:10.400Z,1002.58
2023-03-15T09:02:10.550Z,1002.57
2023-03-15T09:03:10.571Z,1002.60
2023-03-15T09:04:10.702Z,1002.67
2023-03-15T09:05:13.353Z,1002.59
2023-03-15T09:06:10.851Z,1002.64
2023-03-15T09:07:10.932Z,1002.67
2023-03-15T09:08:10.996Z,1002.73
2023-03-15T09:09:11.090Z,1002.67
2023-03-15T09:10:11.194Z,1002.66
2023-03-15T09:11:11.258Z,1002.68
2023-03-15T09:12:11.313Z,1002.70
2023-03-15T09:13:11.392Z,1002.68
2023-03-15T09:14:11.477Z,1002.68
2023-03-15T09:15:11.545Z,1002.70
2023-03-15T09:16:11.662Z,1002.68
2023-03-15T09:17:11.913Z,1002.72
2023-03-15T09:18:11.821Z,1002.76
2023-03-15T09:19:11.901Z,1002.76
2023-03-15T09:20:11.974Z,1002.74
2023-03-15T09:21:12.080Z,1002.80
2023-03-15T09:22:23.485Z,1002.83
2023-03-15T09:23:12.230Z,1002.79
2023-03-15T09:24:12.295Z,1002.82
2023-03-15T09:25:12.370Z,1002.82
2023-03-15T09:26:12.467Z,1002.85
2023-03-15T09:27:12.512Z,1002.81
2023-03-15T09:28:12.609Z,1002.79
2023-03-15T09:29:12.681Z,1002.80
2023-03-15T09:30:12.771Z,1002.82
2023-03-15T09:31:12.938Z,1002.89
2023-03-15T09:32:12.932Z,1002.94
2023-03-15T09:33:12.996Z,1003.10
2023-03-15T09:34:13.111Z,1003.01
2023-03-15T09:35:13.143Z,1002.86
2023-03-15T09:36:13.286Z,1003.01
2023-03-15T09:37:13.307Z,1003.02
2023-03-15T09:38:13.451Z,1003.02
2023-03-15T09:39:13.513Z,1003.04
2023-03-15T09:40:13.577Z,1003.02
2023-03-15T09:41:13.700Z,1002.95
2023-03-15T09:42:13.746Z,1003.06
2023-03-15T09:43:13.808Z,1003.06
2023-03-15T09:44:13.900Z,1003.01
2023-03-15T09:45:13.983Z,1002.83
2023-03-15T09:46:14.123Z,1002.91
2023-03-15T09:47:14.132Z,1003.07
2023-03-15T09:48:14.240Z,1003.09
2023-03-15T09:49:14.311Z,1003.08
2023-03-15T09:50:14.390Z,1002.95
2023-03-15T09:51:14.500Z,1003.08
2023-03-15T09:52:14.575Z,1003.05
2023-03-15T09:53:14.659Z,1003.09
2023-03-15T09:54:14.774Z,1003.09
2023-03-15T09:55:14.851Z,1003.11
2023-03-15T09:56:14.945Z,1002.94
2023-03-15T09:57:15.031Z,1003.03
2023-03-15T09:58:15.101Z,1003.04
2023-03-15T09:59:15.168Z,1003.10
2023-03-15T10:00:15.272Z,1003.20
2023-03-15T10:01:15.435Z,1003.12
2023-03-15T10:02:15.425Z,1003.10
2023-03-15T10:03:15.536Z,1003.05
2023-03-15T10:04:15.606Z,1003.15
2023-03-15T10:05:15.665Z,1003.21
2023-03-15T10:06:15.758Z,1003.25
2023-03-15T10:07:15.822Z,1003.20
2023-03-15T10:08:15.920Z,1003.13
2023-03-15T10:09:15.990Z,1003.23
2023-03-15T10:10:16.075Z,1003.15
2023-03-15T10:11:16.179Z,1003.14
2023-03-15T10:12:16.265Z,1003.14
2023-03-15T10:13:16.352Z,1003.19
2023-03-15T10:14:16.457Z,1003.12
2023-03-15T10:15:16.520Z,1003.25
2023-03-15T10:16:16.697Z,1003.13
2023-03-15T10:17:16.672Z,1003.24
2023-03-15T10:18:16.760Z,1003.16
2023-03-15T10:19:16.844Z,1003.00
2023-03-15T10:20:16.928Z,1003.15
2023-03-15T10:21:17.009Z,1003.12
2023-03-15T10:22:17.065Z,1003.15
2023-03-15T10:23:17.157Z,1003.09
2023-03-15T10:24:17.231Z,1003.11
2023-03-15T10:25:17.310Z,1003.07
2023-03-15T10:26:17.439Z,1003.14
2023-03-15T10:27:17.490Z,1003.13
2023-03-15T10:28:17.546Z,1003.07
2023-03-15T10:29:17.622Z,1003.01
2023-03-15T10:30:17.718Z,1003.08
2023-03-15T10:31:22.884Z,1003.09
2023-03-15T10:32:17.925Z,1003.08
2023-03-15T10:33:17.980Z,1003.14
2023-03-15T10:34:18.052Z,1003.23
2023-03-15T10:35:18.132Z,1003.20
2023-03-15T10:36:18.307Z,1003.17
2023-03-15T10:37:18.306Z,1003.26
2023-03-15T10:38:18.389Z,1003.12
2023-03-15T10:39:18.471Z,1003.16
2023-03-15T10:40:18.556Z,1003.24
2023-03-15T10:41:28.523Z,1003.21
2023-03-15T10:42:18.729Z,1003.14
2023-03-15T10:43:18.777Z,1003.09
2023-03-15T10:44:18.859Z,1003.09
2023-03-15T10:45:18.904Z,1003.21
2023-03-15T10:46:19.063Z,1003.22
2023-03-15T10:47:24.072Z,1003.17
2023-03-15T10:48:19.156Z,1003.17
2023-03-15T10:49:19.219Z,1003.10
2023-03-15T10:50:19.358Z,1003.14
2023-03-15T10:51:19.399Z,1003.11
2023-03-15T10:52:19.490Z,1003.14
2023-03-15T10:53:19.559Z,1003.10
2023-03-15T10:54:19.655Z,1003.09
2023-03-15T10:55:19.717Z,1003.09
2023-03-15T10:56:19.803Z,1003.08
2023-03-15T10:57:19.857Z,1003.11
2023-03-15T10:58:19.928Z,1003.13
2023-03-15T10:59:19.989Z,1003.11
2023-03-15T11:00:20.219Z,1003.15
2023-03-15T11:01:20.194Z,1003.15
2023-03-15T11:02:20.244Z,1003.16
2023-03-15T11:03:20.304Z,1003.17
2023-03-15T11:04:20.432Z,1003.16
2023-03-15T11:05:20.497Z,1003.21
2023-03-15T11:06:20.580Z,1003.19
2023-03-15T11:07:20.637Z,1003.16
2023-03-15T11:08:20.720Z,1003.24
2023-03-15T11:09:20.762Z,1003.23
2023-03-15T11:10:20.859Z,1003.22
2023-03-15T11:11:20.927Z,1003.28
2023-03-15T11:12:20.991Z,1003.28
2023-03-15T11:13:21.051Z,1003.28
2023-03-15T11:14:21.140Z,1003.30
2023-03-15T11:15:21.236Z,1003.33
2023-03-15T11:16:21.358Z,1003.36
2023-03-15T11:17:21.383Z,1003.43
2023-03-15T11:18:21.487Z,1003.44
2023-03-15T11:19:21.557Z,1003.45
2023-03-15T11:20:21.642Z,1003.42
2023-03-15T11:21:21.730Z,1003.40
2023-03-15T11:22:21.801Z,1003.40
2023-03-15T11:23:21.877Z,1003.39
2023-03-15T11:24:22.016Z,1003.45
2023-03-15T11:25:24.876Z,1003.46
2023-03-15T11:26:31.944Z,1003.44
2023-03-15T11:27:22.218Z,1003.44
2023-03-15T11:28:22.301Z,1003.47
2023-03-15T11:29:22.383Z,1003.45
2023-03-15T11:30:22.453Z,1003.50
2023-03-15T11:31:22.581Z,1003.56
2023-03-15T11:32:22.605Z,1003.59
2023-03-15T11:33:22.652Z,1003.63
2023-03-15T11:34:22.762Z,1003.64
2023-03-15T11:35:22.948Z,1003.62
2023-03-15T11:36:22.918Z,1003.63
2023-03-15T11:37:23.002Z,1003.65
2023-03-15T11:38:23.089Z,1003.70
2023-03-15T11:39:23.660Z,1003.69
2023-03-15T11:40:23.291Z,1003.70
2023-03-15T11:41:23.399Z,1003.72
2023-03-15T11:42:24.394Z,1003.68
2023-03-15T11:43:23.496Z,1003.71
2023-03-15T11:44:23.605Z,1003.69
2023-03-15T11:45:23.773Z,1003.67
2023-03-15T11:46:23.782Z,1003.64
2023-03-15T11:47:23.841Z,1003.69
2023-03-15T11:48:23.916Z,1003.69
2023-03-15T11:49:23.996Z,1003.73
2023-03-15T11:50:24.137Z,1003.72
2023-03-15T11:51:24.197Z,1003.78
2023-03-15T11:52:24.269Z,1003.73
2023-03-15T11:53:24.312Z,1003.76
2023-03-15T11:54:24.399Z,1003.80
2023-03-15T11:55:24.600Z,1003.80
2023-03-15T11:56:24.560Z,1003.83
2023-03-15T11:57:24.607Z,1003.74
2023-03-15T11:58:24.699Z,1003.83
2023-03-15T11:59:24.772Z,1003.86
2023-03-15T12:00:24.859Z,1003.85
2023-03-15T12:01:24.932Z,1003.88
2023-03-15T12:02:25.035Z,1003.90
2023-03-15T12:03:25.135Z,1003.88
2023-03-15T12:04:25.184Z,1003.90
2023-03-15T12:05:25.200Z,1003.87
2023-03-15T12:06:25.344Z,1003.88
2023-03-15T12:07:25.404Z,1003.88
2023-03-15T12:08:25.472Z,1003.86
2023-03-15T12:09:25.564Z,1003.92
2023-03-15T12:10:25.668Z,1003.87
2023-03-15T12:11:25.747Z,1003.90
2023-03-15T12:12:25.909Z,1003.89
2023-03-15T12:13:25.860Z,1003.93
2023-03-15T12:14:25.925Z,1003.92
2023-03-15T12:15:26.090Z,1003.92
2023-03-15T12:16:26.136Z,1003.96
2023-03-15T12:17:26.171Z,1003.97